Time;durP1;ratioP1;P1;durP2;ratioP2;P2;SDS_P1;SDS_P2;PMS_P1;PMS_P2;Temp;Humidity;BMP_temperature;BMP_pressure;BME280_temperature;BME280_humidity;BME280_pressure;Samples;Min_cycle;Max_cycle;Signal;HPM_P1;HPM_P2
2022/09/27 00:01:28;;;;;;;0.00;0.00;;;;;;;8.88;100.00;99545.81;5248792;28;20075;-68
2022/09/27 00:03:59;;;;;;;0.00;0.00;;;;;;;8.88;100.00;99536.97;5262893;28;20078;-68
2022/09/27 00:06:31;;;;;;;0.00;0.00;;;;;;;8.87;100.00;99541.44;5260641;28;20048;-69
2022/09/27 00:09:03;;;;;;;0.00;0.00;;;;;;;8.85;100.00;99539.91;5259801;28;20747;-69
2022/09/27 00:11:37;;;;;;;0.00;0.00;;;;;;;8.83;100.00;99548.88;5260200;28;20041;-69
2022/09/27 00:14:13;;;;;;;0.00;0.00;;;;;;;8.82;100.00;99549.00;5260902;28;20032;-69
2022/09/27 00:16:44;;;;;;;0.00;0.00;;;;;;;8.81;100.00;99537.53;5258121;28;20063;-69
2022/09/27 00:19:20;;;;;;;0.00;0.00;;;;;;;8.80;100.00;99551.81;5252363;28;20103;-69
2022/09/27 00:21:51;;;;;;;0.00;0.00;;;;;;;8.82;100.00;99554.31;5256479;28;20029;-69
2022/09/27 00:24:23;;;;;;;0.00;0.00;;;;;;;8.80;100.00;99557.13;5253778;28;20033;-69
2022/09/27 00:26:54;;;;;;;0.00;0.00;;;;;;;8.81;100.00;99558.81;5257105;28;20449;-69
2022/09/27 00:29:25;;;;;;;0.00;0.00;;;;;;;8.80;100.00;99559.78;5253231;28;20475;-69
2022/09/27 00:31:57;;;;;;;0.00;0.00;;;;;;;8.78;100.00;99575.06;5257858;28;20569;-69
2022/09/27 00:34:28;;;;;;;0.00;0.00;;;;;;;8.78;100.00;99593.66;5264633;28;20029;-69
2022/09/27 00:36:59;;;;;;;0.00;0.00;;;;;;;8.76;100.00;99576.16;5261012;28;20060;-70
2022/09/27 00:39:31;;;;;;;0.00;0.00;;;;;;;8.76;100.00;99584.13;5254671;28;20024;-69
2022/09/27 00:42:02;;;;;;;0.00;0.00;;;;;;;8.76;100.00;99582.34;5253871;28;20471;-70
2022/09/27 00:44:37;;;;;;;0.00;0.00;;;;;;;8.77;100.00;99576.00;5252376;28;20028;-69
2022/09/27 00:47:16;;;;;;;0.00;0.00;;;;;;;8.77;100.00;99586.66;5252662;28;20079;-70
2022/09/27 00:50:02;;;;;;;0.00;0.00;;;;;;;8.77;100.00;99578.69;5255698;28;20049;-70
2022/09/27 00:52:33;;;;;;;0.00;0.00;;;;;;;8.76;100.00;99571.69;5252133;28;20406;-70
2022/09/27 00:55:14;;;;;;;0.00;0.00;;;;;;;8.76;100.00;99574.34;5258347;28;20033;-69
2022/09/27 00:57:47;;;;;;;0.00;0.00;;;;;;;8.75;100.00;99570.00;5251935;28;20103;-69
2022/09/27 01:00:20;;;;;;;0.00;0.00;;;;;;;8.76;100.00;99573.50;5254039;28;20029;-69
2022/09/27 01:02:53;;;;;;;0.00;0.00;;;;;;;8.75;100.00;99570.00;5257294;28;20063;-69
2022/09/27 01:05:27;;;;;;;0.00;0.00;;;;;;;8.75;100.00;99570.00;5260172;28;20042;-69
2022/09/27 01:07:59;;;;;;;0.00;0.00;;;;;;;8.74;100.00;99572.78;5257687;28;20424;-69
2022/09/27 01:10:37;;;;;;;0.00;0.00;;;;;;;8.71;100.00;99563.28;5262578;28;20024;-70
2022/09/27 01:13:16;;;;;;;0.00;0.00;;;;;;;8.73;100.00;99571.13;5265348;28;20033;-69
2022/09/27 01:16:16;;;;;;;0.00;0.00;;;;;;;8.73;100.00;99576.44;5258607;28;20139;-69
2022/09/27 01:19:08;;;;;;;0.00;0.00;;;;;;;8.71;100.00;99565.94;5255730;28;20021;-69
2022/09/27 01:21:54;;;;;;;0.00;0.00;;;;;;;8.71;100.00;99568.59;5258261;28;20025;-69
2022/09/27 01:24:41;;;;;;;0.00;0.00;;;;;;;8.70;100.00;99569.56;5264558;28;20036;-69
2022/09/27 01:27:38;;;;;;;0.00;0.00;;;;;;;8.69;100.00;99577.69;5260325;28;20059;-69
2022/09/27 01:30:35;;;;;;;0.00;0.00;;;;;;;8.68;100.00;99583.97;5256735;28;20082;-70
2022/09/27 01:33:19;;;;;;;0.00;0.00;;;;;;;8.64;100.00;99584.25;5262358;28;20032;-69
2022/09/27 01:36:00;;;;;;;0.00;0.00;;;;;;;8.63;100.00;99582.56;5264315;28;20028;-68
2022/09/27 01:38:40;;;;;;;0.00;0.00;;;;;;;8.61;100.00;99597.81;5266464;28;20086;-69
2022/09/27 01:41:29;;;;;;;0.00;0.00;;;;;;;8.59;100.00;99591.81;5258350;28;20036;-69
2022/09/27 01:44:04;;;;;;;0.00;0.00;;;;;;;8.56;100.00;99585.91;5260686;28;20048;-68
2022/09/27 01:46:50;;;;;;;0.00;0.00;;;;;;;8.54;100.00;99595.84;5251648;28;20399;-68
2022/09/27 01:49:34;;;;;;;0.00;0.00;;;;;;;8.52;100.00;99600.47;5260160;28;20047;-68
2022/09/27 01:52:07;;;;;;;;;;;;;;;8.47;100.00;99598.19;5253667;28;20040;-68
2022/09/27 01:54:47;;;;;;;0.00;0.00;;;;;;;8.40;100.00;99603.19;5261002;28;20273;-68
2022/09/27 01:57:23;;;;;;;0.00;0.00;;;;;;;8.37;100.00;99616.72;5259909;28;20036;-68
2022/09/27 02:00:01;;;;;;;0.00;0.00;;;;;;;8.35;100.00;99616.00;5255417;28;20089;-68
2022/09/27 02:02:37;;;;;;;0.00;0.00;;;;;;;8.33;100.00;99607.34;5260842;28;20131;-68
2022/09/27 02:05:13;;;;;;;0.00;0.00;;;;;;;8.31;100.00;99600.47;5257965;28;20555;-69
2022/09/27 02:08:09;;;;;;;0.00;0.00;;;;;;;8.30;100.00;99599.63;5260914;28;20037;-68
2022/09/27 02:10:43;;;;;;;0.00;0.00;;;;;;;8.25;100.00;99605.34;5255497;28;20126;-69
2022/09/27 02:13:28;;;;;;;0.00;0.00;;;;;;;8.23;100.00;99611.78;5259763;28;20305;-68
2022/09/27 02:16:11;;;;;;;;;;;;;;;8.20;100.00;99612.03;5257726;28;20107;-68
2022/09/27 02:18:52;;;;;;;0.00;0.00;;;;;;;8.14;100.00;99610.75;5256690;28;20323;-68
2022/09/27 02:21:32;;;;;;;0.00;0.00;;;;;;;8.12;100.00;99610.03;5254134;28;20283;-68
2022/09/27 02:24:07;;;;;;;0.00;0.00;;;;;;;8.10;100.00;99603.19;5244723;28;20394;-68
2022/09/27 02:26:44;;;;;;;0.00;0.00;;;;;;;8.08;100.00;99597.16;5249699;28;20029;-68
2022/09/27 02:29:23;;;;;;;0.00;0.00;;;;;;;8.09;100.00;99599.66;5257889;28;20029;-68
2022/09/27 02:31:54;;;;;;;0.00;0.00;;;;;;;8.11;100.00;99591.56;5255375;28;20044;-68
2022/09/27 02:34:29;;;;;;;0.00;0.00;;;;;;;8.10;100.00;99608.50;5252158;28;20562;-69
2022/09/27 02:37:03;;;;;;;0.00;0.00;;;;;;;8.05;100.00;99609.75;5245820;28;20116;-68
2022/09/27 02:39:35;;;;;;;0.00;0.00;;;;;;;8.04;100.00;99621.31;5253589;28;20029;-68
2022/09/27 02:42:07;;;;;;;0.00;0.00;;;;;;;8.02;100.00;99619.78;5250389;28;20030;-68
2022/09/27 02:44:39;;;;;;;0.00;0.00;;;;;;;7.99;100.00;99620.03;5251561;28;20031;-68
2022/09/27 02:47:29;;;;;;;0.00;0.00;;;;;;;7.94;100.00;99609.81;5251168;28;20497;-68
2022/09/27 02:50:27;;;;;;;0.00;0.00;;;;;;;7.90;100.00;99605.75;5246813;28;20113;-68
2022/09/27 02:53:20;;;;;;;0.00;0.00;;;;;;;7.87;100.00;99608.66;5257887;28;20032;-68
2022/09/27 02:56:25;;;;;;;0.00;0.00;;;;;;;7.83;100.00;99610.72;5248292;28;20037;-68
2022/09/27 02:58:56;;;;;;;;;;;;;;;7.79;100.00;99605.81;5255529;28;20070;-68
2022/09/27 03:01:46;;;;;;;0.00;0.00;;;;;;;7.77;100.00;99611.25;5258501;28;20316;-68
2022/09/27 03:04:24;;;;;;;0.00;0.00;;;;;;;7.74;100.00;99605.34;5251456;28;20287;-68
2022/09/27 03:06:59;;;;;;;0.00;0.00;;;;;;;7.72;100.00;99609.94;5255814;28;20382;-67
2022/09/27 03:09:48;;;;;;;0.00;0.00;;;;;;;7.70;100.00;99606.56;5257703;28;20086;-68
2022/09/27 03:12:24;;;;;;;0.00;0.00;;;;;;;7.68;100.00;99605.88;5247367;28;20483;-68
2022/09/27 03:14:58;;;;;;;0.00;0.00;;;;;;;7.67;100.00;99605.03;5254231;28;20033;-69
2022/09/27 03:17:30;;;;;;;0.00;0.00;;;;;;;7.66;100.00;99598.03;5248696;28;20029;-68
2022/09/27 03:20:02;;;;;;;0.00;0.00;;;;;;;7.65;100.00;99593.69;5248884;28;20039;-67
2022/09/27 03:22:34;;;;;;;0.00;0.00;;;;;;;7.62;100.00;99597.44;5263368;28;20070;-67
2022/09/27 03:25:06;;;;;;;0.00;0.00;;;;;;;7.62;100.00;99612.53;5251374;28;20033;-68
2022/09/27 03:27:37;;;;;;;0.00;0.00;;;;;;;7.63;100.00;99609.75;5259132;28;20017;-67
2022/09/27 03:30:11;;;;;;;0.00;0.00;;;;;;;7.63;100.00;99624.81;5260179;28;20547;-67
2022/09/27 03:32:44;;;;;;;0.00;0.00;;;;;;;7.64;100.00;99621.22;5261907;28;20024;-68
2022/09/27 03:35:15;;;;;;;0.00;0.00;;;;;;;7.65;100.00;99618.44;5252605;28;20020;-67
2022/09/27 03:37:46;;;;;;;0.00;0.00;;;;;;;7.66;100.00;99617.44;5252846;28;20116;-68
2022/09/27 03:40:18;;;;;;;0.00;0.00;;;;;;;7.69;100.00;99613.72;5254580;28;20028;-68
2022/09/27 03:42:49;;;;;;;0.00;0.00;;;;;;;7.71;100.00;99616.22;5236877;28;20122;-68
2022/09/27 03:45:21;;;;;;;0.00;0.00;;;;;;;7.72;100.00;99626.72;5250879;28;20500;-68
2022/09/27 03:47:53;;;;;;;0.00;0.00;;;;;;;7.71;100.00;99630.34;5249664;28;20044;-68
2022/09/27 03:50:24;;;;;;;1.08;0.00;;;;;;;7.73;100.00;99632.84;5255441;28;20840;-68
2022/09/27 03:52:56;;;;;;;0.30;0.10;;;;;;;7.74;100.00;99642.50;5256571;28;20028;-68
2022/09/27 03:55:27;;;;;;;0.00;0.00;;;;;;;7.78;100.00;99643.94;5255432;28;20025;-68
2022/09/27 03:57:58;;;;;;;0.00;0.00;;;;;;;7.81;100.00;99655.16;5252358;28;20570;-69
2022/09/27 04:00:31;;;;;;;0.00;0.00;;;;;;;7.82;100.00;99656.84;5258876;28;20061;-68
2022/09/27 04:03:04;;;;;;;0.00;0.00;;;;;;;7.83;100.00;99663.00;5261305;28;20028;-69
2022/09/27 04:05:35;;;;;;;0.00;0.00;;;;;;;7.83;100.00;99668.31;5255077;28;20761;-69
2022/09/27 04:08:06;;;;;;;0.00;0.00;;;;;;;7.83;100.00;99678.91;5252245;28;20020;-68
2022/09/27 04:10:38;;;;;;;0.00;0.00;;;;;;;7.81;100.00;99664.94;5254363;28;20024;-69
2022/09/27 04:13:09;;;;;;;0.00;0.00;;;;;;;7.80;100.00;99664.06;5251960;28;20055;-69
2022/09/27 04:15:42;;;;;;;0.00;0.00;;;;;;;7.80;100.00;99664.06;5252835;28;20033;-70
2022/09/27 04:18:13;;;;;;;0.00;0.00;;;;;;;7.77;100.00;99664.34;5251318;28;20024;-69
2022/09/27 04:20:44;;;;;;;0.00;0.00;;;;;;;7.77;100.00;99652.88;5252582;28;20482;-71
2022/09/27 04:23:16;;;;;;;0.00;0.00;;;;;;;7.77;100.00;99642.28;5254077;28;20471;-70
2022/09/27 04:25:47;;;;;;;0.00;0.00;;;;;;;7.74;100.00;99631.91;5256415;28;20683;-69
2022/09/27 04:28:18;;;;;;;0.00;0.00;;;;;;;7.72;100.00;99628.53;5259628;28;20103;-70
2022/09/27 04:30:50;;;;;;;0.00;0.00;;;;;;;7.71;100.00;99635.66;5264070;28;20081;-69
2022/09/27 04:33:22;;;;;;;0.30;0.00;;;;;;;7.73;100.00;99627.53;5255218;28;20032;-70
2022/09/27 04:38:43;;;;;;;0.10;0.00;;;;;;;7.73;100.00;99630.19;5260066;28;20754;-69
2022/09/27 04:41:15;;;;;;;0.00;0.00;;;;;;;7.73;100.00;99623.09;5263239;28;20028;-70
2022/09/27 04:43:46;;;;;;;0.00;0.00;;;;;;;7.73;100.00;99633.72;5258169;28;20028;-69
2022/09/27 04:46:19;;;;;;;0.00;0.00;;;;;;;7.71;100.00;99635.66;5260172;28;20727;-69
2022/09/27 04:48:50;;;;;;;0.00;0.00;;;;;;;7.72;100.00;99628.53;5260432;28;20064;-70
2022/09/27 04:51:22;;;;;;;0.00;0.00;;;;;;;7.70;100.00;99626.00;5261819;28;20037;-69
2022/09/27 04:53:56;;;;;;;0.00;0.00;;;;;;;7.68;100.00;99641.22;5256955;28;20390;-70
2022/09/27 04:56:27;;;;;;;0.00;0.00;;;;;;;7.67;100.00;99634.25;5262293;28;20443;-69
2022/09/27 04:58:58;;;;;;;0.00;0.00;;;;;;;7.66;100.00;99645.81;5262034;28;20039;-70
2022/09/27 05:01:29;;;;;;;0.00;0.00;;;;;;;7.64;100.00;99653.91;5259088;28;20100;-70
2022/09/27 05:04:01;;;;;;;0.00;0.00;;;;;;;7.61;100.00;99654.19;5263133;28;20067;-70
2022/09/27 05:06:32;;;;;;;0.00;0.00;;;;;;;7.60;100.00;99662.25;5258879;28;20145;-70
2022/09/27 05:09:03;;;;;;;0.00;0.00;;;;;;;7.59;100.00;99669.38;5266655;28;20424;-69
2022/09/27 05:11:36;;;;;;;0.00;0.00;;;;;;;7.60;100.00;99673.72;5260134;28;20029;-69
2022/09/27 05:14:08;;;;;;;0.00;0.00;;;;;;;7.61;100.00;99663.94;5261252;28;20139;-69
2022/09/27 05:16:39;;;;;;;0.00;0.00;;;;;;;7.61;100.00;99662.13;5258571;28;20532;-70
2022/09/27 05:19:10;;;;;;;0.00;0.00;;;;;;;7.61;100.00;99663.94;5252215;28;20078;-69
2022/09/27 05:21:42;;;;;;;2.10;0.00;;;;;;;7.59;100.00;99664.09;5263113;28;20039;-70
2022/09/27 05:24:13;;;;;;;0.00;0.00;;;;;;;7.57;100.00;99666.00;5262408;28;20078;-69
2022/09/27 05:26:46;;;;;;;0.00;0.00;;;;;;;7.58;100.00;99670.34;5250801;28;20420;-69
2022/09/27 05:29:17;;;;;;;0.00;0.00;;;;;;;7.54;100.00;99658.31;5256546;28;20025;-70
2022/09/27 05:31:48;;;;;;;0.00;0.00;;;;;;;7.53;100.00;99659.25;5264652;28;20016;-69
2022/09/27 05:34:20;;;;;;;0.00;0.00;;;;;;;7.51;100.00;99663.84;5261742;28;20118;-70
2022/09/27 05:36:51;;;;;;;0.00;0.00;;;;;;;7.51;100.00;99674.47;5256055;28;20158;-70
2022/09/27 05:39:23;;;;;;;0.00;0.00;;;;;;;7.51;100.00;99663.84;5258680;28;20395;-69
2022/09/27 05:41:55;;;;;;;0.08;0.00;;;;;;;7.53;100.00;99661.91;5267170;28;20107;-69
2022/09/27 05:44:26;;;;;;;0.00;0.00;;;;;;;7.54;100.00;99660.94;5257911;28;20075;-69
2022/09/27 05:47:03;;;;;;;0.00;0.00;;;;;;;7.56;100.00;99671.44;5251658;28;20139;-69
2022/09/27 05:49:34;;;;;;;0.00;0.00;;;;;;;7.58;100.00;99670.34;5261526;28;20739;-69
2022/09/27 05:52:06;;;;;;;0.00;0.00;;;;;;;7.59;100.00;99674.69;5260326;28;20764;-70
2022/09/27 05:54:38;;;;;;;0.00;0.00;;;;;;;7.58;100.00;99675.66;5255887;28;20024;-69
2022/09/27 05:57:09;;;;;;;0.00;0.00;;;;;;;7.58;100.00;99674.81;5254747;28;20039;-69
2022/09/27 05:59:40;;;;;;;0.00;0.00;;;;;;;7.58;100.00;99669.50;5264862;28;20031;-70
2022/09/27 06:02:12;;;;;;;0.00;0.00;;;;;;;7.58;100.00;99682.78;5252997;28;20024;-70
2022/09/27 06:04:43;;;;;;;0.00;0.00;;;;;;;7.59;100.00;99682.66;5258735;28;20047;-69
2022/09/27 06:07:14;;;;;;;0.00;0.00;;;;;;;7.58;100.00;99674.81;5261031;28;20037;-69
2022/09/27 06:09:45;;;;;;;0.00;0.00;;;;;;;7.58;100.00;99672.16;5256859;28;20771;-68
2022/09/27 06:12:19;;;;;;;0.00;0.00;;;;;;;7.57;100.00;99675.78;5262039;28;20028;-69
2022/09/27 06:14:50;;;;;;;0.00;0.00;;;;;;;7.55;100.00;99669.75;5260793;28;20423;-70
2022/09/27 06:17:21;;;;;;;0.00;0.00;;;;;;;7.55;100.00;99678.53;5254741;28;20047;-69
2022/09/27 06:19:53;;;;;;;0.00;0.00;;;;;;;7.54;100.00;99674.22;5262313;28;20120;-69
2022/09/27 06:22:24;;;;;;;0.00;0.00;;;;;;;7.54;100.00;99670.75;5256940;28;20025;-69
2022/09/27 06:24:56;;;;;;;0.00;0.00;;;;;;;7.54;100.00;99673.38;5268045;28;20028;-70
2022/09/27 06:27:27;;;;;;;0.00;0.00;;;;;;;7.54;100.00;99673.38;5256738;28;20035;-69
2022/09/27 06:29:58;;;;;;;0.00;0.00;;;;;;;7.55;100.00;99675.91;5260044;28;20047;-69
2022/09/27 06:32:30;;;;;;;0.00;0.00;;;;;;;7.56;100.00;99669.63;5255302;28;20036;-69
2022/09/27 06:35:04;;;;;;;0.00;0.00;;;;;;;7.57;100.00;99673.13;5266404;28;20033;-69
2022/09/27 06:37:35;;;;;;;0.00;0.00;;;;;;;7.59;100.00;99676.50;5264265;28;20454;-70
2022/09/27 06:40:08;;;;;;;0.00;0.00;;;;;;;7.56;100.00;99685.56;5265816;28;20041;-69
2022/09/27 06:42:39;;;;;;;0.00;0.00;;;;;;;7.55;100.00;99681.19;5264747;28;20448;-69
2022/09/27 06:45:11;;;;;;;0.03;0.00;;;;;;;7.56;100.00;99688.22;5268789;28;20024;-69
2022/09/27 06:47:42;;;;;;;0.00;0.00;;;;;;;7.57;100.00;99687.22;5264812;28;22037;-69
2022/09/27 06:50:14;;;;;;;0.00;0.00;;;;;;;7.56;100.00;99682.91;5263076;28;20056;-69
2022/09/27 06:52:47;;;;;;;0.00;0.00;;;;;;;7.57;100.00;99683.72;5267154;28;20028;-69
2022/09/27 06:55:18;;;;;;;0.00;0.00;;;;;;;7.62;100.00;99676.25;5261929;28;20447;-70
2022/09/27 07:00:51;;;;;;;0.00;0.00;;;;;;;7.62;100.00;99679.72;5264856;28;20036;-69
2022/09/27 07:03:22;;;;;;;0.00;0.00;;;;;;;7.65;100.00;99679.50;5272197;28;20060;-70
2022/09/27 07:05:56;;;;;;;0.00;0.00;;;;;;;7.66;100.00;99681.16;5265565;28;20476;-70
2022/09/27 07:08:28;;;;;;;0.00;0.00;;;;;;;7.68;100.00;99686.34;5268261;28;20443;-70
2022/09/27 07:11:02;;;;;;;0.00;0.00;;;;;;;7.71;100.00;99687.88;5267920;28;20028;-70
2022/09/27 07:13:36;;;;;;;0.10;0.00;;;;;;;7.75;100.00;99676.06;5263989;28;20453;-69
2022/09/27 07:16:10;;;;;;;0.00;0.00;;;;;;;7.79;100.00;99688.94;5271937;28;20029;-70
2022/09/27 07:18:42;;;;;;;0.00;0.00;;;;;;;7.83;100.00;99686.88;5265049;28;20033;-69
2022/09/27 07:21:15;;;;;;;0.00;0.00;;;;;;;7.85;100.00;99682.28;5262893;28;20335;-69
2022/09/27 07:23:46;;;;;;;0.00;0.00;;;;;;;7.88;100.00;99687.34;5267750;28;20469;-69
2022/09/27 07:26:17;;;;;;;0.00;0.00;;;;;;;7.90;100.00;99690.72;5258861;28;20056;-69
2022/09/27 07:28:49;;;;;;;0.00;0.00;;;;;;;7.91;100.00;99692.38;5256733;28;20025;-70
2022/09/27 07:31:20;;;;;;;0.00;0.00;;;;;;;7.93;100.00;99692.25;5261608;28;20075;-69
2022/09/27 07:33:52;;;;;;;0.00;0.00;;;;;;;7.97;100.00;99694.53;5260214;28;20032;-69
2022/09/27 07:36:23;;;;;;;0.00;0.00;;;;;;;8.00;100.00;99693.44;5271593;28;20039;-69
2022/09/27 07:38:55;;;;;;;0.00;0.00;;;;;;;8.00;100.00;99699.59;5264759;28;20036;-69
2022/09/27 07:41:26;;;;;;;0.00;0.00;;;;;;;8.03;100.00;99698.47;5266356;28;20394;-69
2022/09/27 07:43:58;;;;;;;0.00;0.00;;;;;;;8.07;100.00;99699.06;5257484;28;20037;-69
2022/09/27 07:46:29;;;;;;;0.10;0.00;;;;;;;8.10;100.00;99693.50;5257489;28;20032;-71
2022/09/27 07:49:01;;;;;;;0.00;0.00;;;;;;;8.12;100.00;99696.88;5264450;28;20399;-68
2022/09/27 07:51:32;;;;;;;0.00;0.00;;;;;;;8.13;100.00;99696.75;5263402;28;20037;-69
2022/09/27 07:54:04;;;;;;;0.00;0.00;;;;;;;8.13;100.00;99710.03;5269368;28;20060;-69
2022/09/27 07:56:36;;;;;;;0.00;0.00;;;;;;;8.15;100.00;99702.78;5273538;28;20066;-69
2022/09/27 07:59:07;;;;;;;0.00;0.00;;;;;;;8.15;100.00;99704.56;5273876;28;20028;-69
2022/09/27 08:01:38;;;;;;;0.00;0.00;;;;;;;8.19;100.00;99711.34;5264060;28;20025;-70
2022/09/27 08:04:09;;;;;;;0.00;0.00;;;;;;;8.23;100.00;99718.06;5265308;28;20029;-69
2022/09/27 08:06:41;;;;;;;0.00;0.00;;;;;;;8.23;100.00;99713.59;5261307;28;20040;-69
2022/09/27 08:09:12;;;;;;;0.00;0.00;;;;;;;8.24;100.00;99714.41;5265097;28;20043;-69
2022/09/27 08:11:44;;;;;;;0.00;0.00;;;;;;;8.24;100.00;99720.56;5264577;28;20565;-69
2022/09/27 08:14:16;;;;;;;0.00;0.00;;;;;;;8.26;100.00;99717.78;5261752;28;20115;-69
2022/09/27 08:16:48;;;;;;;0.00;0.00;;;;;;;8.27;100.00;99727.47;5258978;28;20530;-69
2022/09/27 08:19:20;;;;;;;0.00;0.00;;;;;;;8.29;100.00;99720.19;5267170;28;20032;-69
2022/09/27 08:21:53;;;;;;;0.00;0.00;;;;;;;8.32;100.00;99730.56;5260811;28;20096;-69
2022/09/27 08:24:25;;;;;;;0.00;0.00;;;;;;;8.35;100.00;99719.66;5265556;28;20109;-69
2022/09/27 08:26:56;;;;;;;0.00;0.00;;;;;;;8.39;100.00;99723.75;5272039;28;20111;-69
2022/09/27 08:29:27;;;;;;;0.10;0.00;;;;;;;8.42;100.00;99726.19;5260919;28;20580;-70
2022/09/27 08:31:58;;;;;;;0.08;0.00;;;;;;;8.48;100.00;99726.63;5260593;28;20081;-69
2022/09/27 08:34:30;;;;;;;0.00;0.00;;;;;;;8.50;100.00;99727.34;5260749;28;20502;-68
2022/09/27 08:37:01;;;;;;;0.00;0.00;;;;;;;8.52;100.00;99717.41;5272630;28;20146;-69
2022/09/27 08:39:33;;;;;;;0.00;0.00;;;;;;;8.56;100.00;99718.84;5266453;28;20037;-69
2022/09/27 08:42:26;;;;;;;0.00;0.00;;;;;;;8.60;100.00;99718.44;5274007;28;20116;-69
2022/09/27 08:45:23;;;;;;;0.00;0.00;;;;;;;8.62;100.00;99720.97;5263520;28;20044;-69
2022/09/27 08:47:59;;;;;;;0.00;0.00;;;;;;;8.64;100.00;99724.31;5265289;28;20037;-69
2022/09/27 08:50:34;;;;;;;0.00;0.00;;;;;;;8.66;100.00;99727.69;5257714;28;20032;-69
2022/09/27 08:53:19;;;;;;;0.00;0.00;;;;;;;8.68;100.00;99728.41;5259462;28;20032;-69
2022/09/27 08:55:53;;;;;;;0.00;0.00;;;;;;;8.70;100.00;99731.78;5261095;28;20025;-69
2022/09/27 08:58:38;;;;;;;0.00;0.00;;;;;;;8.75;100.00;99732.22;5270273;28;20036;-69
2022/09/27 09:01:17;;;;;;;0.00;0.00;;;;;;;8.77;100.00;99732.94;5258850;28;20447;-69
2022/09/27 09:03:54;;;;;;;0.00;0.00;;;;;;;8.80;100.00;99722.03;5263678;28;20021;-69
2022/09/27 09:06:36;;;;;;;0.03;0.00;;;;;;;8.85;100.00;99732.25;5261694;28;20078;-68
2022/09/27 09:09:29;;;;;;;0.25;0.10;;;;;;;8.85;100.00;99732.25;5259915;28;20550;-70
2022/09/27 09:12:50;;;;;;;0.10;0.00;;;;;;;8.85;100.00;99732.25;5261810;28;20025;-69
2022/09/27 09:15:55;;;;;;;0.00;0.00;;;;;;;8.89;100.00;99740.81;5176817;28;20062;-69
2022/09/27 09:18:50;;;;;;;0.10;0.00;;;;;;;8.90;100.00;99747.81;5169046;28;20045;-69
2022/09/27 09:21:43;;;;;;;0.00;0.00;;;;;;;8.91;100.00;99746.84;5260706;28;20040;-69
2022/09/27 09:24:40;;;;;;;0.00;0.00;;;;;;;8.95;100.00;99750.91;5259109;28;20577;-69
2022/09/27 09:27:33;;;;;;;0.00;0.00;;;;;;;8.95;100.00;99745.59;5259520;28;20037;-69
2022/09/27 09:30:17;;;;;;;0.00;0.00;;;;;;;8.96;100.00;99748.13;5265656;28;20031;-69
2022/09/27 09:33:07;;;;;;;0.08;0.00;;;;;;;8.99;100.00;99755.00;5270325;28;20039;-69
2022/09/27 09:35:46;;;;;;;0.00;0.00;;;;;;;9.02;100.00;99749.41;5261689;28;20905;-69
2022/09/27 09:38:24;;;;;;;0.25;0.00;;;;;;;9.06;100.00;99752.66;5268616;28;20534;-68
2022/09/27 09:41:06;;;;;;;0.10;0.00;;;;;;;9.06;100.00;99752.66;5267110;28;20020;-68
2022/09/27 09:43:44;;;;;;;0.00;0.00;;;;;;;9.07;100.00;99746.34;5262788;28;20033;-68
2022/09/27 09:46:32;;;;;;;0.00;0.00;;;;;;;9.07;100.00;99759.63;5261209;28;20075;-69
2022/09/27 09:49:09;;;;;;;0.25;0.00;;;;;;;9.04;100.00;99760.75;5258741;28;20053;-69
2022/09/27 09:51:55;;;;;;;0.25;0.08;;;;;;;9.01;100.00;99764.53;5260273;28;20147;-68
2022/09/27 09:54:36;;;;;;;0.38;0.00;;;;;;;8.97;100.00;99748.97;5259643;28;20029;-69
2022/09/27 09:57:23;;;;;;;0.03;0.00;;;;;;;8.94;100.00;99770.53;5263812;28;20031;-68
2022/09/27 10:00:01;;;;;;;0.55;0.10;;;;;;;8.83;100.00;99760.81;5258058;28;20036;-69
2022/09/27 10:02:41;;;;;;;0.35;0.10;;;;;;;8.79;100.00;99757.56;5267489;28;20063;-69
2022/09/27 10:05:20;;;;;;;0.00;0.00;;;;;;;8.81;100.00;99755.63;5265307;28;20044;-69
2022/09/27 10:07:56;;;;;;;4.97;0.10;;;;;;;8.80;100.00;99748.63;5263584;28;20028;-70
2022/09/27 10:10:27;;;;;;;0.30;0.03;;;;;;;8.77;100.00;99758.69;5262375;28;20040;-69
2022/09/27 10:13:02;;;;;;;0.43;0.00;;;;;;;8.74;100.00;99754.47;5276310;28;20032;-69
2022/09/27 10:15:34;;;;;;;0.05;0.00;;;;;;;8.70;100.00;99755.69;5269523;28;20478;-69
2022/09/27 10:18:16;;;;;;;0.15;0.00;;;;;;;8.62;100.00;99761.69;5269600;28;20083;-69
2022/09/27 10:21:29;;;;;;;0.10;0.00;;;;;;;8.55;100.00;99757.88;5261454;28;20035;-69
2022/09/27 10:24:07;;;;;;;0.00;0.00;;;;;;;8.46;100.00;99761.31;5272650;28;20040;-69
2022/09/27 10:26:42;;;;;;;0.00;0.00;;;;;;;8.42;100.00;99760.72;5251818;28;20039;-70
2022/09/27 10:29:33;;;;;;;0.10;0.00;;;;;;;8.34;100.00;99763.19;5265115;28;20040;-69
2022/09/27 10:32:21;;;;;;;0.10;0.00;;;;;;;8.32;100.00;99770.44;5261665;28;20032;-69
2022/09/27 10:34:53;;;;;;;3.85;0.05;;;;;;;8.31;100.00;99762.59;5270261;28;20059;-70
2022/09/27 10:37:24;;;;;;;0.00;0.00;;;;;;;8.25;100.00;99763.94;5273881;28;20033;-69
2022/09/27 10:39:57;;;;;;;0.00;0.00;;;;;;;8.20;100.00;99768.78;5277250;28;20103;-69
2022/09/27 10:42:34;;;;;;;0.00;0.00;;;;;;;8.16;100.00;99770.88;5273352;28;20029;-70
2022/09/27 10:45:27;;;;;;;0.00;0.00;;;;;;;8.14;100.00;99778.13;5268334;28;20028;-70
2022/09/27 10:48:00;;;;;;;0.00;0.00;;;;;;;8.15;100.00;99769.19;5268911;28;20025;-70
2022/09/27 10:50:34;;;;;;;0.00;0.00;;;;;;;8.19;100.00;99765.31;5271598;28;20413;-70
2022/09/27 10:53:17;;;;;;;0.10;0.00;;;;;;;8.23;100.00;99756.09;5276309;28;20131;-70
2022/09/27 10:55:50;;;;;;;0.00;0.00;;;;;;;8.26;100.00;99768.28;5267488;28;20501;-70
2022/09/27 10:58:30;;;;;;;0.00;0.00;;;;;;;8.28;100.00;99769.00;5263429;28;20255;-70
2022/09/27 11:01:11;;;;;;;0.00;0.00;;;;;;;8.33;100.00;99774.75;5263126;28;20112;-70
2022/09/27 11:03:55;;;;;;;0.10;0.00;;;;;;;8.37;100.00;99767.38;5263846;28;20368;-70
2022/09/27 11:06:36;;;;;;;0.00;0.00;;;;;;;8.40;100.00;99767.97;5261448;28;20025;-70
2022/09/27 11:09:23;;;;;;;0.00;0.00;;;;;;;8.44;100.00;99777.41;5263888;28;20028;-70
2022/09/27 11:12:13;;;;;;;0.00;0.00;;;;;;;8.44;100.00;99763.28;5263354;28;20521;-70
2022/09/27 11:14:52;;;;;;;0.00;0.00;;;;;;;8.37;100.00;99759.41;5271482;28;20401;-69
2022/09/27 11:17:31;;;;;;;0.00;0.00;;;;;;;8.40;100.00;99762.66;5263342;28;20039;-70
2022/09/27 11:20:18;;;;;;;0.00;0.00;;;;;;;8.43;100.00;99746.44;5265696;28;20036;-70
2022/09/27 11:23:13;;;;;;;0.00;0.00;;;;;;;8.54;100.00;99747.38;5266301;28;20635;-70
2022/09/27 11:26:09;;;;;;;0.00;0.00;;;;;;;8.61;100.00;99743.19;5273268;28;20036;-70
2022/09/27 11:28:52;;;;;;;0.00;0.00;;;;;;;8.66;100.00;99738.34;5268936;28;21034;-70
2022/09/27 11:31:51;;;;;;;0.00;0.00;;;;;;;8.75;100.00;99739.38;5263423;28;20032;-70
2022/09/27 11:35:03;;;;;;;0.00;0.00;;;;;;;8.87;100.00;99734.78;5267877;28;20040;-69
2022/09/27 11:38:09;;;;;;;0.00;0.00;;;;;;;9.00;100.00;99735.41;5274498;28;20036;-69
2022/09/27 11:41:01;;;;;;;0.00;0.00;;;;;;;9.08;100.00;99729.41;5259110;28;20029;-70
2022/09/27 11:43:37;;;;;;;0.00;0.00;;;;;;;9.17;100.00;99733.91;5276723;28;20489;-69
2022/09/27 11:46:36;;;;;;;0.00;0.00;;;;;;;9.25;100.00;99731.41;5260392;28;20032;-69
2022/09/27 11:49:36;;;;;;;0.00;0.00;;;;;;;9.28;100.00;99738.28;5259321;28;20142;-69
2022/09/27 11:52:43;;;;;;;0.00;0.00;;;;;;;9.29;100.00;99742.63;5258889;28;20035;-70
2022/09/27 11:55:17;;;;;;;0.00;0.00;;;;;;;9.32;100.00;99737.00;5264737;28;20464;-69
2022/09/27 11:58:41;;;;;;;0.00;0.00;;;;;;;9.35;100.00;99736.75;5260425;28;20044;-69
2022/09/27 12:01:32;;;;;;;0.00;0.00;;;;;;;9.33;100.00;99734.22;5249595;28;20044;-69
2022/09/27 12:04:29;;;;;;;0.00;0.00;;;;;;;9.40;100.00;99730.03;5261530;28;20058;-68
2022/09/27 12:07:17;;;;;;;0.00;0.00;;;;;;;9.45;100.00;99729.63;5234102;28;20055;-69
2022/09/27 12:09:55;;;;;;;0.05;0.00;;;;;;;9.53;100.00;99727.13;5260685;28;20028;-68
2022/09/27 12:12:33;;;;;;;0.00;0.00;;;;;;;9.56;100.00;99737.47;5255935;28;20028;-69
2022/09/27 12:15:14;;;;;;;0.00;0.00;;;;;;;9.55;100.00;99737.63;5266399;28;20356;-69
2022/09/27 12:17:51;;;;;;;0.00;0.00;;;;;;;9.56;100.00;99731.31;5258037;28;20048;-69
2022/09/27 12:20:27;;;;;;;0.00;0.00;;;;;;;9.54;100.00;99731.47;5260512;28;20028;-69
2022/09/27 12:23:06;;;;;;;0.00;0.00;;;;;;;9.55;100.00;99721.63;5264359;28;20090;-69
2022/09/27 12:25:40;;;;;;;0.08;0.00;;;;;;;9.58;100.00;99722.22;5263893;28;20036;-69
2022/09/27 12:28:33;;;;;;;0.00;0.00;;;;;;;9.63;100.00;99727.13;5262029;28;20017;-69